Mundo Novo, Brazil
Current Conditions -  °F | °C
As of 6:00 AM on Friday 21 Nov 2014 (Local Time) from SBCA Reporting Station
Broken Clouds Broken Clouds  
Wind Chill: 64°   Ceiling: 3000
Heat Index: 64°   Visibility: 6mi
Dew Point: 55°   Wind: 14mph
Humidity: 73%   Direction: 50°NE
Pressure: 29.94"   Gusts: NA
Location:  23.94°S, 54.27°W
Report Text: SBCA 210900Z 05012KT 9999 SCT006 BKN030 18/13 Q1014
Loading
Personal Weather Stations






























Interactive Weather Map New forecast layout! Learn more

10-Day Weather Forecast

Advertisements
Track Severe Weather on mobile